createdAt,value
2019-01-14T00:00:08.250Z,8.10
2019-01-14T00:02:48.750Z,8.10
2019-01-14T00:05:29.157Z,8.10
2019-01-14T00:08:10.016Z,8.10
2019-01-14T00:10:51.049Z,8.20
2019-01-14T00:13:32.211Z,8.20
2019-01-14T00:16:14.423Z,8.20
2019-01-14T00:18:54.679Z,8.20
2019-01-14T00:21:35.425Z,8.20
2019-01-14T00:24:16.507Z,8.30
2019-01-14T00:26:57.664Z,8.20
2019-01-14T00:29:38.319Z,8.20
2019-01-14T00:32:19.092Z,8.20
2019-01-14T00:35:01.976Z,8.10
2019-01-14T00:37:45.561Z,8.00
2019-01-14T00:40:26.665Z,8.00
2019-01-14T00:43:07.589Z,7.90
2019-01-14T00:45:48.503Z,7.80
2019-01-14T00:48:28.899Z,7.80
2019-01-14T00:51:11.281Z,7.80
2019-01-14T00:53:52.201Z,7.80
2019-01-14T00:56:32.827Z,7.70
2019-01-14T00:59:13.899Z,7.70
2019-01-14T01:01:54.393Z,7.70
2019-01-14T01:04:34.940Z,7.70
2019-01-14T01:07:15.781Z,7.70
2019-01-14T01:09:56.413Z,7.60
2019-01-14T01:12:37.244Z,7.50
2019-01-14T01:15:17.762Z,7.50
2019-01-14T01:17:58.968Z,7.50
2019-01-14T01:20:39.936Z,7.50
2019-01-14T01:23:20.984Z,7.50
2019-01-14T01:26:02.123Z,7.50
2019-01-14T01:28:42.583Z,7.40
2019-01-14T01:31:23.772Z,7.40
2019-01-14T01:34:04.071Z,7.40
2019-01-14T01:36:47.079Z,7.40
2019-01-14T01:39:29.728Z,7.40
2019-01-14T01:42:10.579Z,7.40
2019-01-14T01:44:51.869Z,7.40
2019-01-14T01:47:32.908Z,7.30
2019-01-14T01:50:13.590Z,7.20
2019-01-14T01:52:53.941Z,7.30
2019-01-14T01:55:34.907Z,7.30
2019-01-14T01:58:15.286Z,7.30
2019-01-14T02:00:56.016Z,7.30
2019-01-14T02:03:36.844Z,7.30
2019-01-14T02:06:17.372Z,7.30
2019-01-14T02:08:58.461Z,7.40
2019-01-14T02:11:39.382Z,7.30
2019-01-14T02:14:20.496Z,7.30
2019-01-14T02:17:01.129Z,7.30
2019-01-14T02:19:43.067Z,7.30
2019-01-14T02:22:23.464Z,7.30
2019-01-14T02:25:04.599Z,7.30
2019-01-14T02:27:45.296Z,7.30
2019-01-14T02:33:17.224Z,7.20
2019-01-14T02:35:57.966Z,7.20
2019-01-14T02:38:38.539Z,7.20
2019-01-14T02:41:19.307Z,7.20
2019-01-14T02:44:00.635Z,7.20
2019-01-14T02:46:44.152Z,7.20
2019-01-14T02:49:24.854Z,7.20
2019-01-14T02:52:05.629Z,7.20
2019-01-14T02:54:46.299Z,7.20
2019-01-14T02:57:27.236Z,7.20
2019-01-14T03:00:10.983Z,7.20
2019-01-14T03:02:51.909Z,7.20
2019-01-14T03:05:32.407Z,7.20
2019-01-14T03:08:12.774Z,7.20
2019-01-14T03:10:54.966Z,7.20
2019-01-14T03:13:35.841Z,7.10
2019-01-14T03:16:16.306Z,7.10
2019-01-14T03:18:57.582Z,7.00
2019-01-14T03:21:39.377Z,7.10
2019-01-14T03:24:20.106Z,7.00
2019-01-14T03:27:00.692Z,7.00
2019-01-14T03:29:41.463Z,7.00
2019-01-14T03:32:22.074Z,7.00
2019-01-14T03:35:02.934Z,6.90
2019-01-14T03:40:23.037Z,6.90
2019-01-14T03:43:03.725Z,6.90
2019-01-14T03:45:44.751Z,6.90
2019-01-14T03:48:25.856Z,6.90
2019-01-14T03:51:06.559Z,6.90
2019-01-14T03:53:47.678Z,6.90
2019-01-14T03:56:28.742Z,6.90
2019-01-14T03:59:09.584Z,6.90
2019-01-14T04:01:49.833Z,6.90
2019-01-14T04:04:30.852Z,6.90
2019-01-14T04:07:13.876Z,6.90
2019-01-14T04:09:54.356Z,6.80
2019-01-14T04:12:37.318Z,6.90
2019-01-14T04:15:19.207Z,6.90
2019-01-14T04:18:00.052Z,6.80
2019-01-14T04:20:40.885Z,6.80
2019-01-14T04:23:21.614Z,6.80
2019-01-14T04:26:02.234Z,6.80
2019-01-14T04:28:42.828Z,6.70
2019-01-14T04:31:23.651Z,6.70
2019-01-14T04:34:04.572Z,6.60
2019-01-14T04:36:45.008Z,6.60
2019-01-14T04:39:26.132Z,6.50
2019-01-14T04:42:06.710Z,6.60
2019-01-14T04:44:47.326Z,6.60
2019-01-14T04:47:28.327Z,6.60
2019-01-14T04:50:09.080Z,6.60
2019-01-14T04:52:49.708Z,6.60
2019-01-14T04:55:30.430Z,6.60
2019-01-14T04:58:11.050Z,6.50
2019-01-14T05:00:51.640Z,6.50
2019-01-14T05:03:34.641Z,6.50
2019-01-14T05:06:14.832Z,6.50
2019-01-14T05:08:55.277Z,6.50
2019-01-14T05:11:36.267Z,6.50
2019-01-14T05:14:18.699Z,6.50
2019-01-14T05:16:59.316Z,6.50
2019-01-14T05:25:15.141Z,6.50
2019-01-14T05:27:55.730Z,6.50
2019-01-14T05:30:36.626Z,6.60
2019-01-14T05:33:17.276Z,6.60
2019-01-14T05:35:58.214Z,6.60
2019-01-14T05:38:39.027Z,6.60
2019-01-14T05:41:07.832Z,6.60
2019-01-14T05:43:55.632Z,6.60
2019-01-14T05:46:43.687Z,6.60
2019-01-14T05:49:31.495Z,6.60
2019-01-14T05:52:19.278Z,6.60
2019-01-14T05:55:00.313Z,6.50
2019-01-14T05:57:43.807Z,6.60
2019-01-14T06:00:25.047Z,6.50
2019-01-14T06:03:05.780Z,6.50
2019-01-14T06:05:46.791Z,6.60
2019-01-14T06:08:27.748Z,6.60
2019-01-14T06:11:08.642Z,6.60
2019-01-14T06:13:50.575Z,6.60
2019-01-14T06:19:35.579Z,6.50
2019-01-14T06:25:20.326Z,6.50
2019-01-14T06:28:01.649Z,6.50
2019-01-14T06:30:42.861Z,6.50
2019-01-14T06:33:24.192Z,6.50
2019-01-14T06:36:07.152Z,6.50
2019-01-14T06:38:48.057Z,6.50
2019-01-14T06:41:29.070Z,6.50
2019-01-14T06:44:10.120Z,6.50
2019-01-14T06:46:50.579Z,6.40
2019-01-14T06:49:31.904Z,6.40
2019-01-14T06:52:14.896Z,6.50
2019-01-14T06:54:56.079Z,6.40
2019-01-14T07:00:21.120Z,6.40
2019-01-14T07:03:01.603Z,6.40
2019-01-14T07:05:42.171Z,6.40
2019-01-14T07:08:22.789Z,6.40
2019-01-14T07:11:03.851Z,6.30
2019-01-14T07:13:44.531Z,6.30
2019-01-14T07:16:25.215Z,6.30
2019-01-14T07:18:53.630Z,6.30
2019-01-14T07:24:50.202Z,6.30
2019-01-14T07:30:46.607Z,6.30
2019-01-14T07:36:29.487Z,6.30
2019-01-14T07:39:17.262Z,6.30
2019-01-14T07:42:07.087Z,6.30
2019-01-14T07:44:54.886Z,6.30
2019-01-14T07:47:42.917Z,6.30
2019-01-14T07:50:30.676Z,6.30
2019-01-14T07:53:18.879Z,6.30
2019-01-14T07:55:59.473Z,6.30
2019-01-14T07:58:40.750Z,6.20
2019-01-14T08:01:21.875Z,6.20
2019-01-14T08:04:02.610Z,6.20
2019-01-14T08:06:43.191Z,6.10
2019-01-14T08:09:24.290Z,6.10
2019-01-14T08:12:05.008Z,6.10
2019-01-14T08:14:45.559Z,6.10
2019-01-14T08:20:38.691Z,6.00
2019-01-14T08:23:19.535Z,6.00
2019-01-14T08:26:00.031Z,6.00
2019-01-14T08:28:41.322Z,6.00
2019-01-14T08:31:22.704Z,6.00
2019-01-14T08:34:03.576Z,6.00
2019-01-14T08:36:44.312Z,6.10
2019-01-14T08:39:27.744Z,6.10
2019-01-14T08:42:08.608Z,6.20
2019-01-14T08:44:49.071Z,6.20
2019-01-14T08:47:30.032Z,6.20
2019-01-14T08:50:10.401Z,6.20
2019-01-14T08:52:51.474Z,6.20
2019-01-14T08:55:33.196Z,6.20
2019-01-14T08:58:13.456Z,6.20
2019-01-14T09:00:53.983Z,6.30
2019-01-14T09:03:34.290Z,6.30
2019-01-14T09:06:14.852Z,6.30
2019-01-14T09:08:55.613Z,6.30
2019-01-14T09:11:38.127Z,6.30
2019-01-14T09:14:20.773Z,6.40
2019-01-14T09:17:01.410Z,6.40
2019-01-14T09:19:44.199Z,6.30
2019-01-14T09:22:25.086Z,6.30
2019-01-14T09:25:05.950Z,6.40
2019-01-14T09:27:46.139Z,6.40
2019-01-14T09:30:26.633Z,6.50
2019-01-14T09:33:07.561Z,6.60
2019-01-14T09:35:48.283Z,6.70
2019-01-14T09:38:35.632Z,6.70
2019-01-14T09:41:11.682Z,6.80
2019-01-14T09:43:52.767Z,6.90
2019-01-14T09:46:33.466Z,6.90
2019-01-14T09:49:13.778Z,7.00
2019-01-14T09:51:54.649Z,7.10
2019-01-14T09:54:35.765Z,7.10
2019-01-14T09:57:16.410Z,7.20
2019-01-14T09:59:56.938Z,7.20
2019-01-14T10:02:37.703Z,7.20
2019-01-14T10:05:18.286Z,7.20
2019-01-14T10:07:58.749Z,7.20
2019-01-14T10:10:38.986Z,7.20
2019-01-14T10:13:19.881Z,7.20
2019-01-14T10:16:00.921Z,7.20
2019-01-14T10:18:42.430Z,7.20
2019-01-14T10:21:23.391Z,7.20
2019-01-14T10:24:03.795Z,7.20
2019-01-14T10:26:44.542Z,7.20
2019-01-14T10:29:25.026Z,7.20
2019-01-14T10:32:05.401Z,7.20
2019-01-14T10:34:46.445Z,7.20
2019-01-14T10:37:27.043Z,7.20
2019-01-14T10:40:07.444Z,7.30
2019-01-14T10:42:48.219Z,7.30
2019-01-14T10:45:29.319Z,7.30
2019-01-14T10:48:10.109Z,7.30
2019-01-14T10:50:50.880Z,7.30
2019-01-14T10:53:31.824Z,7.30
2019-01-14T10:56:14.758Z,7.30
2019-01-14T10:58:55.595Z,7.30
2019-01-14T11:01:36.320Z,7.40
2019-01-14T11:04:18.912Z,7.40
2019-01-14T11:06:59.733Z,7.40
2019-01-14T11:09:44.542Z,7.40
2019-01-14T11:12:23.371Z,7.40
2019-01-14T11:15:04.169Z,7.40
2019-01-14T11:17:46.836Z,7.40
2019-01-14T11:20:27.714Z,7.50
2019-01-14T11:23:08.742Z,7.50
2019-01-14T11:25:49.449Z,7.60
2019-01-14T11:28:30.162Z,7.70
2019-01-14T11:31:10.580Z,7.60
2019-01-14T11:33:51.970Z,7.60
2019-01-14T11:36:32.418Z,7.60
2019-01-14T11:39:13.151Z,7.50
2019-01-14T11:44:59.224Z,7.50
2019-01-14T11:53:47.567Z,7.50
2019-01-14T11:56:30.679Z,7.40
2019-01-14T11:59:14.289Z,7.40
2019-01-14T12:01:55.610Z,7.40
2019-01-14T12:07:23.942Z,7.40
2019-01-14T12:10:05.169Z,7.40
2019-01-14T12:12:46.036Z,7.40
2019-01-14T12:15:27.274Z,7.40
2019-01-14T12:18:07.553Z,7.40
2019-01-14T12:20:48.732Z,7.40
2019-01-14T12:23:17.245Z,7.40
2019-01-14T12:26:05.005Z,7.40
2019-01-14T12:28:53.398Z,7.40
2019-01-14T12:31:41.191Z,7.30
2019-01-14T12:34:28.964Z,7.30
2019-01-14T12:37:30.935Z,7.30
2019-01-14T12:40:26.917Z,7.30
2019-01-14T12:43:14.694Z,7.20
2019-01-14T12:49:24.597Z,7.20
2019-01-14T12:52:21.361Z,7.20
2019-01-14T12:55:29.942Z,7.20
2019-01-14T12:58:10.152Z,7.10
2019-01-14T13:00:50.970Z,7.10
2019-01-14T13:03:32.261Z,7.20
2019-01-14T13:06:13.467Z,7.20
2019-01-14T13:08:54.106Z,7.20
2019-01-14T13:11:34.889Z,7.20
2019-01-14T13:14:15.944Z,7.30
2019-01-14T13:16:56.595Z,7.30
2019-01-14T13:19:37.438Z,7.30
2019-01-14T13:22:18.115Z,7.30
2019-01-14T13:24:59.131Z,7.30
2019-01-14T13:27:40.527Z,7.30
2019-01-14T13:30:21.005Z,7.30
2019-01-14T13:33:01.776Z,7.30
2019-01-14T13:35:43.124Z,7.30
2019-01-14T13:41:20.150Z,7.30
2019-01-14T13:44:04.268Z,7.30
2019-01-14T13:46:44.534Z,7.40
2019-01-14T13:49:27.267Z,7.40
2019-01-14T13:52:07.894Z,7.40
2019-01-14T13:54:48.545Z,7.40
2019-01-14T13:57:29.434Z,7.30
2019-01-14T14:00:10.995Z,7.30
2019-01-14T14:02:52.644Z,7.30
2019-01-14T14:05:33.271Z,7.30
2019-01-14T14:08:13.940Z,7.40
2019-01-14T14:10:55.202Z,7.40
2019-01-14T14:13:35.602Z,7.40
2019-01-14T14:16:16.712Z,7.40
2019-01-14T14:18:57.770Z,7.40
2019-01-14T14:21:39.058Z,7.40
2019-01-14T14:24:20.607Z,7.50
2019-01-14T14:27:01.742Z,7.70
2019-01-14T14:29:42.881Z,7.70
2019-01-14T14:32:23.727Z,7.70
2019-01-14T14:35:04.955Z,7.70
2019-01-14T14:37:45.588Z,7.60
2019-01-14T14:40:28.328Z,7.50
2019-01-14T14:43:12.078Z,7.50
2019-01-14T14:45:52.867Z,7.40
2019-01-14T14:48:33.606Z,7.40
2019-01-14T14:51:14.220Z,7.30
2019-01-14T14:53:55.260Z,7.20
2019-01-14T14:56:36.594Z,7.10
2019-01-14T14:59:17.412Z,7.10
2019-01-14T15:01:57.992Z,6.90
2019-01-14T15:04:39.570Z,6.90
2019-01-14T15:07:22.535Z,6.80
2019-01-14T15:10:03.942Z,6.90
2019-01-14T15:12:44.175Z,6.80
2019-01-14T15:15:24.906Z,6.80
2019-01-14T15:18:07.968Z,6.60
2019-01-14T15:20:49.165Z,6.60
2019-01-14T15:23:29.934Z,6.30
2019-01-14T15:26:10.846Z,6.20
2019-01-14T15:28:52.049Z,6.10
2019-01-14T15:31:32.704Z,6.10
2019-01-14T15:34:13.287Z,6.10
2019-01-14T15:36:54.727Z,6.20
2019-01-14T15:39:36.109Z,6.20
2019-01-14T15:42:18.149Z,6.30
2019-01-14T15:44:58.811Z,6.10
2019-01-14T15:47:39.902Z,6.20
2019-01-14T15:50:22.023Z,6.20
2019-01-14T15:53:03.698Z,6.30
2019-01-14T15:55:44.502Z,6.30
2019-01-14T15:58:25.335Z,6.30
2019-01-14T16:01:06.667Z,6.30
2019-01-14T16:07:00.251Z,6.20
2019-01-14T16:09:40.779Z,6.20
2019-01-14T16:12:21.515Z,6.20
2019-01-14T16:15:02.317Z,6.20
2019-01-14T16:17:44.497Z,6.10
2019-01-14T16:20:25.222Z,6.10
2019-01-14T16:23:06.191Z,6.10
2019-01-14T16:25:47.634Z,5.80
2019-01-14T16:28:28.153Z,5.90
2019-01-14T16:31:09.356Z,5.90
2019-01-14T16:33:51.154Z,6.10
2019-01-14T16:36:31.432Z,6.00
2019-01-14T16:39:15.214Z,5.90
2019-01-14T16:41:57.156Z,5.90
2019-01-14T16:47:16.853Z,5.70
2019-01-14T16:49:57.861Z,5.70
2019-01-14T16:52:39.273Z,5.70
2019-01-14T16:55:24.093Z,5.70
2019-01-14T16:58:05.108Z,5.80
2019-01-14T17:03:29.694Z,5.90
2019-01-14T17:06:10.178Z,6.00
2019-01-14T17:08:51.188Z,5.90
2019-01-14T17:11:33.786Z,5.90
2019-01-14T17:14:15.315Z,5.80
2019-01-14T17:16:56.324Z,5.80
2019-01-14T17:19:37.059Z,5.80
2019-01-14T17:22:18.478Z,5.80
2019-01-14T17:25:00.398Z,5.80
2019-01-14T17:27:41.119Z,5.60
2019-01-14T17:30:21.770Z,5.60
2019-01-14T17:33:05.832Z,5.50
2019-01-14T17:35:47.679Z,5.50
2019-01-14T17:38:28.131Z,5.50
2019-01-14T17:43:55.076Z,5.50
2019-01-14T17:46:36.002Z,5.50
2019-01-14T17:49:16.648Z,5.40
2019-01-14T17:51:57.307Z,5.40
2019-01-14T17:54:38.415Z,5.40
2019-01-14T18:00:31.736Z,5.30
2019-01-14T18:03:12.499Z,5.30
2019-01-14T18:05:52.736Z,5.30
2019-01-14T18:08:33.095Z,5.20
2019-01-14T18:11:14.644Z,5.20
2019-01-14T18:13:55.697Z,5.20
2019-01-14T18:16:36.314Z,5.30
2019-01-14T18:19:17.747Z,5.30
2019-01-14T18:21:59.529Z,5.30
2019-01-14T18:24:40.189Z,5.20
2019-01-14T18:27:21.091Z,5.20
2019-01-14T18:30:02.294Z,5.20
2019-01-14T18:32:43.581Z,5.20
2019-01-14T18:35:24.489Z,5.10
2019-01-14T18:38:06.853Z,5.00
2019-01-14T18:40:48.553Z,5.00
2019-01-14T18:43:29.149Z,5.00
2019-01-14T18:46:09.883Z,4.90
2019-01-14T18:48:52.241Z,4.80
2019-01-14T18:51:32.603Z,4.80
2019-01-14T18:54:13.329Z,4.70
2019-01-14T18:56:56.588Z,4.70
2019-01-14T18:59:37.187Z,4.60
2019-01-14T19:02:18.113Z,4.60
2019-01-14T19:04:59.073Z,4.60
2019-01-14T19:07:39.332Z,4.60
2019-01-14T19:10:20.587Z,4.60
2019-01-14T19:13:02.450Z,4.60
2019-01-14T19:15:43.059Z,4.50
2019-01-14T19:21:02.870Z,4.50
2019-01-14T19:23:43.470Z,4.50
2019-01-14T19:26:24.108Z,4.50
2019-01-14T19:29:05.041Z,4.50
2019-01-14T19:31:46.067Z,4.50
2019-01-14T19:34:26.554Z,4.50
2019-01-14T19:37:07.242Z,4.40
2019-01-14T19:39:48.341Z,4.40
2019-01-14T19:42:29.043Z,4.40
2019-01-14T19:45:09.799Z,4.40
2019-01-14T19:47:50.803Z,4.30
2019-01-14T19:50:31.451Z,4.30
2019-01-14T19:56:25.402Z,4.30
2019-01-14T19:59:06.055Z,4.30
2019-01-14T20:01:47.199Z,4.20
2019-01-14T20:04:27.918Z,4.30
2019-01-14T20:07:11.083Z,4.20
2019-01-14T20:09:52.525Z,4.20
2019-01-14T20:12:33.593Z,4.20
2019-01-14T20:15:16.772Z,4.20
2019-01-14T20:17:57.437Z,4.10
2019-01-14T20:20:38.101Z,4.10
2019-01-14T20:23:18.829Z,4.10
2019-01-14T20:25:59.413Z,4.20
2019-01-14T20:28:39.595Z,4.10
2019-01-14T20:31:20.028Z,4.20
2019-01-14T20:34:01.218Z,4.20
2019-01-14T20:36:42.315Z,4.20
2019-01-14T20:39:23.232Z,4.10
2019-01-14T20:42:03.627Z,4.10
2019-01-14T20:44:44.144Z,4.10
2019-01-14T20:47:24.741Z,4.10
2019-01-14T20:50:05.517Z,4.10
2019-01-14T20:52:46.007Z,4.10
2019-01-14T20:55:26.881Z,4.10
2019-01-14T21:00:52.824Z,4.00
2019-01-14T21:03:34.114Z,3.90
2019-01-14T21:06:14.813Z,3.80
2019-01-14T21:08:55.611Z,3.70
2019-01-14T21:11:36.471Z,3.80
2019-01-14T21:14:16.942Z,3.80
2019-01-14T21:16:57.709Z,3.80
2019-01-14T21:19:38.355Z,3.80
2019-01-14T21:22:19.033Z,3.80
2019-01-14T21:24:59.538Z,3.70
2019-01-14T21:27:40.261Z,3.70
2019-01-14T21:30:21.026Z,3.60
2019-01-14T21:33:02.034Z,3.60
2019-01-14T21:35:42.582Z,3.60
2019-01-14T21:38:23.434Z,3.50
2019-01-14T21:41:04.377Z,3.60
2019-01-14T21:43:44.792Z,3.50
2019-01-14T21:46:25.215Z,3.50
2019-01-14T21:49:06.063Z,3.40
2019-01-14T21:51:47.059Z,3.50
2019-01-14T21:54:28.224Z,3.40
2019-01-14T21:57:09.027Z,3.50
2019-01-14T21:59:49.392Z,3.50
2019-01-14T22:02:29.987Z,3.40
2019-01-14T22:05:10.834Z,3.50
2019-01-14T22:07:51.867Z,3.40
2019-01-14T22:10:33.273Z,3.40
2019-01-14T22:13:13.657Z,3.40
2019-01-14T22:15:54.265Z,3.40
2019-01-14T22:18:35.120Z,3.40
2019-01-14T22:21:15.816Z,3.30
2019-01-14T22:26:41.647Z,3.30
2019-01-14T22:29:22.102Z,3.20
2019-01-14T22:32:03.079Z,3.20
2019-01-14T22:34:44.223Z,3.20
2019-01-14T22:37:24.783Z,3.10
2019-01-14T22:40:05.645Z,3.10
2019-01-14T22:42:46.318Z,3.10
2019-01-14T22:45:27.150Z,3.20
2019-01-14T22:48:08.103Z,3.10
2019-01-14T22:50:48.995Z,3.10
2019-01-14T22:53:29.688Z,3.10
2019-01-14T22:56:10.548Z,3.10
2019-01-14T22:58:50.975Z,3.10
2019-01-14T23:01:33.473Z,3.10
2019-01-14T23:04:14.526Z,3.00
2019-01-14T23:06:54.943Z,3.10
2019-01-14T23:09:36.097Z,3.10
2019-01-14T23:12:16.502Z,3.20
2019-01-14T23:14:57.238Z,3.10
2019-01-14T23:17:37.850Z,3.10
2019-01-14T23:20:18.652Z,3.10
2019-01-14T23:22:59.326Z,3.10
2019-01-14T23:25:39.642Z,3.00
2019-01-14T23:28:20.363Z,3.10
2019-01-14T23:31:00.871Z,3.10
2019-01-14T23:33:41.391Z,3.10
2019-01-14T23:36:22.287Z,3.20
2019-01-14T23:39:04.904Z,3.20
2019-01-14T23:41:45.866Z,3.20
2019-01-14T23:44:29.998Z,3.30
2019-01-14T23:47:10.407Z,3.20
2019-01-14T23:49:51.084Z,3.20
2019-01-14T23:52:31.641Z,3.20
2019-01-14T23:55:12.498Z,3.30
2019-01-14T23:57:53.227Z,3.30
